Time;durP1;ratioP1;P1;durP2;ratioP2;P2;SDS_P1;SDS_P2;PMS_P1;PMS_P2;Temp;Humidity;BMP_temperature;BMP_pressure;BME280_temperature;BME280_humidity;BME280_pressure;Samples;Min_cycle;Max_cycle;Signal;HPM_P1;HPM_P2
2022/01/25 00:27:04;;;;;;;16.65;12.43;;;;;;;5.95;90.72;101814.38;3005428;79;20998;-79
2022/01/25 00:35:09;;;;;;;23.67;14.85;;;;;;;5.95;90.33;101809.57;3005904;79;20954;-74
2022/01/25 00:39:11;;;;;;;21.57;14.83;;;;;;;5.98;90.43;101806.80;3006423;79;20967;-79
2022/01/25 00:43:12;;;;;;;18.07;13.83;;;;;;;6.09;90.37;101806.42;3003331;78;21021;-78
2022/01/25 00:47:16;;;;;;;20.12;13.10;;;;;;;6.16;89.75;101808.38;3076289;77;21003;-77
2022/01/25 00:55:33;;;;;;;20.88;13.05;;;;;;;6.12;88.81;101794.41;3076344;77;21029;-78
2022/01/25 00:59:35;;;;;;;16.10;11.33;;;;;;;5.81;89.89;101791.13;3076877;77;20999;-79
2022/01/25 01:03:37;;;;;;;18.40;11.73;;;;;;;5.61;90.74;101782.66;3076568;77;20983;-79
2022/01/25 01:07:41;;;;;;;15.15;11.70;;;;;;;5.52;91.43;101781.21;3076907;77;20988;-78
2022/01/25 01:11:55;;;;;;;20.08;14.15;;;;;;;5.55;91.23;101781.09;3077031;77;21000;-78
2022/01/25 01:15:59;;;;;;;17.80;11.80;;;;;;;5.63;90.99;101775.98;3074213;77;21061;-79
2022/01/25 01:37:26;;;;;;;17.23;11.50;;;;;;;5.93;90.57;101762.55;3076522;77;20975;-79
2022/01/25 01:41:11;;;;;;;14.73;12.00;;;;;;;5.86;91.10;101754.84;3066682;76;21019;-78
2022/01/25 01:49:02;;;;;;;17.85;14.13;;;;;;;5.79;91.91;101741.48;3063147;77;21629;-78
2022/01/25 01:53:06;;;;;;;16.67;12.25;;;;;;;5.76;92.48;101750.84;3063878;77;20987;-76
2022/01/25 01:57:09;;;;;;;21.15;14.43;;;;;;;5.80;92.68;101751.13;3064269;77;20998;-77
2022/01/25 02:01:15;;;;;;;22.10;14.20;;;;;;;5.85;92.83;101745.20;3064539;77;21320;-79
2022/01/25 02:05:17;;;;;;;16.97;13.18;;;;;;;5.87;93.00;101734.58;3065026;77;20963;-79
2022/01/25 02:09:19;;;;;;;20.92;14.00;;;;;;;5.91;92.99;101729.58;3064880;77;20974;-78
2022/01/25 02:13:21;;;;;;;20.00;13.72;;;;;;;5.95;92.99;101732.49;3065180;77;21036;-79
2022/01/25 02:25:53;;;;;;;16.52;11.97;;;;;;;6.03;92.66;101720.34;3065090;77;20979;-78
2022/01/25 02:29:54;;;;;;;;;;;;;;;6.11;92.57;101720.03;3067791;76;20995;-79
2022/01/25 02:33:56;;;;;;;16.93;11.08;;;;;;;6.20;92.57;101716.16;3064988;77;20231;-78
2022/01/25 02:37:58;;;;;;;17.92;12.35;;;;;;;6.25;92.14;101711.09;3064859;77;20995;-79
2022/01/25 02:41:59;;;;;;;18.42;12.10;;;;;;;6.28;92.02;101708.77;3063015;77;21547;-79
2022/01/25 02:50:13;;;;;;;16.93;13.03;;;;;;;6.30;91.28;101693.73;3036239;78;20978;-79
2022/01/25 02:54:16;;;;;;;17.17;12.45;;;;;;;6.29;90.97;101681.45;3035986;78;20973;-78
2022/01/25 02:58:18;;;;;;;25.27;11.35;;;;;;;6.34;90.92;101686.52;2971565;79;20986;-78
2022/01/25 03:02:20;;;;;;;14.25;11.48;;;;;;;6.38;90.76;101677.09;3007572;79;20989;-77
2022/01/25 03:06:23;;;;;;;15.53;11.30;;;;;;;6.44;90.52;101669.37;3007557;79;21012;-77
2022/01/25 03:10:38;;;;;;;20.82;12.53;;;;;;;6.51;90.26;101666.00;3007651;79;21026;-78
2022/01/25 03:14:58;;;;;;;15.08;11.43;;;;;;;6.53;90.05;101662.35;3007041;78;21060;-78
2022/01/25 03:18:46;;;;;;;21.05;13.30;;;;;;;6.62;89.63;101663.74;3003163;79;21002;-79
2022/01/25 03:26:54;;;;;;;18.05;12.50;;;;;;;6.70;89.03;101669.58;3007397;79;21539;-79
2022/01/25 03:30:56;;;;;;;18.45;12.40;;;;;;;6.66;88.49;101667.96;2971982;80;20967;-78
2022/01/25 03:34:58;;;;;;;15.50;13.20;;;;;;;6.67;88.86;101668.84;3007301;79;21057;-78
2022/01/25 03:39:00;;;;;;;15.93;11.93;;;;;;;6.68;88.76;101663.50;3007209;79;21029;-80
2022/01/25 03:43:05;;;;;;;16.87;10.70;;;;;;;6.65;88.46;101659.64;3005822;78;21272;-80
2022/01/25 03:47:10;;;;;;;18.50;12.35;;;;;;;6.62;88.64;101658.45;3076785;77;21003;-80
2022/01/25 03:51:10;;;;;;;17.23;11.15;;;;;;;6.61;88.71;101662.02;3077412;77;20921;-79
2022/01/25 03:55:12;;;;;;;14.98;9.58;;;;;;;6.61;88.58;101659.86;3077373;77;20992;-78
2022/01/25 03:59:13;;;;;;;13.90;10.20;;;;;;;6.61;88.63;101673.92;3077732;77;21019;-79
2022/01/25 04:03:22;;;;;;;14.90;9.70;;;;;;;6.59;88.50;101669.64;3075191;77;20944;-76
2022/01/25 04:07:27;;;;;;;17.92;11.88;;;;;;;6.53;88.62;101659.70;3072150;77;20999;-77
2022/01/25 04:11:22;;;;;;;15.95;10.00;;;;;;;6.49;88.68;101652.00;3074033;77;21457;-77
2022/01/25 04:15:24;;;;;;;22.52;10.45;;;;;;;6.46;88.89;101650.78;3076415;76;20956;-76
2022/01/25 04:27:48;;;;;;;14.93;9.15;;;;;;;6.42;89.06;101656.20;3078324;77;21050;-73
2022/01/25 04:31:50;;;;;;;14.98;10.25;;;;;;;6.25;89.59;101656.05;3078456;77;20971;-73
2022/01/25 04:36:21;;;;;;;16.70;9.90;;;;;;;6.17;90.18;101652.88;3078430;77;20952;-72
2022/01/25 04:52:57;;;;;;;12.63;10.10;;;;;;;5.97;91.65;101642.64;3078854;77;20932;-74
2022/01/25 05:00:55;;;;;;;10.63;8.55;;;;;;;5.86;92.97;101651.00;3078430;77;21011;-73
2022/01/25 05:05:04;;;;;;;14.45;9.93;;;;;;;5.83;93.43;101645.37;3078575;77;21007;-74
2022/01/25 05:09:10;;;;;;;14.10;10.80;;;;;;;5.78;93.87;101634.13;3076743;77;21074;-74
2022/01/25 05:13:22;;;;;;;14.38;10.43;;;;;;;5.74;94.30;101629.91;3077022;77;20936;-75
2022/01/25 05:17:21;;;;;;;15.30;11.25;;;;;;;5.71;94.77;101635.31;3074328;77;21505;-73
2022/01/25 05:25:35;;;;;;;16.87;12.90;;;;;;;5.68;95.18;101624.84;3078508;77;21015;-72
2022/01/25 05:29:38;;;;;;;18.40;13.18;;;;;;;5.62;95.78;101629.06;3078300;77;20944;-73
2022/01/25 05:33:40;;;;;;;19.57;13.05;;;;;;;5.60;96.10;101629.14;3078182;77;21010;-73
2022/01/25 05:37:42;;;;;;;17.02;13.53;;;;;;;5.58;96.39;101643.70;3077896;77;21272;-73
2022/01/25 05:41:53;;;;;;;21.60;15.45;;;;;;;5.64;96.54;101644.38;3077886;77;20960;-72
2022/01/25 05:45:59;;;;;;;17.52;14.30;;;;;;;5.61;96.62;101622.06;3040786;77;21068;-73
2022/01/25 05:50:01;;;;;;;23.95;16.75;;;;;;;5.60;96.65;101627.82;3035938;78;20993;-72
2022/01/25 05:54:03;;;;;;;21.35;16.97;;;;;;;5.66;95.49;101641.22;3035649;78;21020;-73
2022/01/25 05:58:04;;;;;;;22.13;14.55;;;;;;;5.57;94.71;101638.03;3035311;78;20965;-73
2022/01/25 06:02:06;;;;;;;21.95;14.63;;;;;;;5.50;94.43;101629.96;3035517;78;20977;-70
2022/01/25 06:06:08;;;;;;;19.85;15.85;;;;;;;5.43;94.59;101624.50;2971550;80;21042;-70
2022/01/25 06:10:10;;;;;;;19.80;17.00;;;;;;;5.32;95.26;101636.79;3007420;79;20998;-70
2022/01/25 06:14:12;;;;;;;28.27;18.12;;;;;;;5.24;96.24;101636.23;2971356;80;20991;-71
2022/01/25 06:18:13;;;;;;;28.42;18.45;;;;;;;5.14;97.39;101632.61;2919602;81;21026;-71
2022/01/25 06:22:16;;;;;;;25.55;17.00;;;;;;;5.20;97.13;101628.89;2919499;81;20983;-71
2022/01/25 06:26:18;;;;;;;29.27;19.75;;;;;;;5.13;97.69;101627.41;3007764;79;20994;-70
2022/01/25 06:30:21;;;;;;;25.32;18.77;;;;;;;5.17;98.10;101622.41;3007213;79;21033;-70
2022/01/25 06:34:23;;;;;;;27.62;19.55;;;;;;;5.20;98.30;101610.86;3007344;79;21037;-71
2022/01/25 06:38:27;;;;;;;29.90;20.90;;;;;;;5.10;99.56;101629.69;3007301;79;20990;-70
2022/01/25 06:42:30;;;;;;;27.30;19.85;;;;;;;5.19;99.86;101630.25;3007404;79;21517;-71
2022/01/25 06:46:31;;;;;;;26.82;19.20;;;;;;;5.39;98.50;101629.03;3003184;79;21018;-69
2022/01/25 06:50:34;;;;;;;25.20;17.95;;;;;;;5.54;97.73;101631.55;3025905;78;21039;-70
2022/01/25 06:54:36;;;;;;;24.02;16.20;;;;;;;5.62;96.81;101629.94;3025829;78;21009;-70
2022/01/25 06:58:40;;;;;;;28.52;19.73;;;;;;;5.55;97.24;101637.68;3025764;78;21048;-70
2022/01/25 07:02:42;;;;;;;22.27;15.98;;;;;;;5.57;97.19;101628.79;3025485;78;21017;-71
2022/01/25 07:06:43;;;;;;;36.55;20.02;;;;;;;5.56;96.72;101629.71;3026000;78;21056;-69
2022/01/25 07:10:45;;;;;;;23.83;13.80;;;;;;;5.54;96.61;101631.55;3026045;78;21002;-70
2022/01/25 07:14:47;;;;;;;19.32;10.35;;;;;;;5.57;96.75;101631.43;3025318;78;20990;-70
2022/01/25 07:18:49;;;;;;;10.13;6.12;;;;;;;5.56;96.61;101624.43;3026037;78;21020;-70
2022/01/25 07:22:51;;;;;;;8.35;6.12;;;;;;;5.51;96.83;101613.20;3025832;78;21040;-70
2022/01/25 07:26:52;;;;;;;20.70;14.25;;;;;;;5.50;96.96;101617.21;3025981;78;21005;-69
2022/01/25 07:30:54;;;;;;;19.42;10.55;;;;;;;5.47;97.47;101619.50;3025925;78;20997;-70
2022/01/25 07:34:56;;;;;;;12.25;8.93;;;;;;;5.47;97.41;101614.22;3025670;78;20989;-70
2022/01/25 07:38:57;;;;;;;8.63;5.17;;;;;;;5.47;97.20;101616.86;3026043;78;21009;-70
2022/01/25 07:42:59;;;;;;;8.90;5.08;;;;;;;5.49;96.38;101615.02;3026022;78;21613;-70
2022/01/25 07:47:01;;;;;;;9.10;7.17;;;;;;;5.55;95.79;101607.32;3007318;79;21002;-70
2022/01/25 07:51:03;;;;;;;6.97;5.05;;;;;;;5.63;95.56;101612.30;3007701;79;21033;-71
2022/01/25 07:55:07;;;;;;;6.22;3.80;;;;;;;5.47;95.47;101620.81;3007704;79;20986;-71
2022/01/25 07:59:09;;;;;;;5.90;4.00;;;;;;;5.52;94.82;101628.12;2980350;79;21010;-71
2022/01/25 08:03:11;;;;;;;9.35;7.00;;;;;;;5.42;94.63;101618.83;3007282;79;20938;-70
2022/01/25 08:07:13;;;;;;;7.35;4.40;;;;;;;5.48;94.79;101613.30;3007512;79;21068;-69
2022/01/25 08:11:15;;;;;;;4.95;3.35;;;;;;;5.46;94.64;101615.14;3007518;79;21002;-70
2022/01/25 08:15:17;;;;;;;7.72;5.83;;;;;;;5.46;94.33;101615.14;3007304;79;21036;-70
2022/01/25 08:19:21;;;;;;;7.62;5.05;;;;;;;5.55;94.11;101617.44;3007179;79;20959;-70
2022/01/25 08:23:23;;;;;;;9.10;5.33;;;;;;;5.57;94.18;101631.88;3006820;79;21057;-70
2022/01/25 08:27:25;;;;;;;9.48;5.83;;;;;;;5.66;94.00;101620.09;3006769;79;21033;-69
2022/01/25 08:31:27;;;;;;;6.22;4.10;;;;;;;5.53;93.77;101617.96;3007245;79;20970;-70
2022/01/25 08:35:29;;;;;;;7.78;6.33;;;;;;;5.63;94.16;101614.94;3007318;79;20967;-69
2022/01/25 08:39:30;;;;;;;6.00;4.08;;;;;;;5.63;94.87;101625.05;3007101;79;20969;-69
2022/01/25 08:43:35;;;;;;;8.23;4.30;;;;;;;5.63;95.21;101628.14;3007012;78;21033;-70
2022/01/25 08:47:37;;;;;;;4.83;3.17;;;;;;;5.57;94.56;101627.91;3007294;79;20994;-69
2022/01/25 08:51:39;;;;;;;5.70;3.45;;;;;;;5.34;94.21;101644.66;3007335;79;21010;-70
2022/01/25 08:55:41;;;;;;;6.17;4.08;;;;;;;5.41;93.20;101659.33;3007440;79;21034;-70
2022/01/25 08:59:43;;;;;;;5.20;3.85;;;;;;;5.47;93.08;101662.20;3007225;79;21029;-70
2022/01/25 09:03:45;;;;;;;6.20;4.35;;;;;;;5.42;92.49;101656.64;3007070;79;21021;-70
2022/01/25 09:07:46;;;;;;;7.30;5.17;;;;;;;5.33;92.45;101653.50;3006859;79;20997;-69
2022/01/25 09:11:48;;;;;;;5.97;4.42;;;;;;;5.17;92.65;101650.55;3006690;79;21033;-70
2022/01/25 09:15:50;;;;;;;10.00;6.08;;;;;;;5.08;92.62;101649.12;3006460;79;21014;-70
2022/01/25 09:19:51;;;;;;;12.28;7.50;;;;;;;4.98;93.35;101663.98;3006628;78;21026;-72
2022/01/25 09:23:54;;;;;;;10.23;7.15;;;;;;;4.98;93.09;101667.93;3006620;79;21013;-72
2022/01/25 09:27:56;;;;;;;10.00;7.45;;;;;;;5.11;93.42;101663.06;3006713;79;21030;-71
2022/01/25 09:31:58;;;;;;;11.75;8.00;;;;;;;5.10;93.31;101660.47;3007033;79;20997;-72
2022/01/25 09:36:00;;;;;;;11.80;8.15;;;;;;;5.19;93.64;101657.95;3006945;79;21577;-72
2022/01/25 09:40:02;;;;;;;11.12;8.23;;;;;;;5.27;93.08;101667.30;3007095;79;21030;-72
2022/01/25 09:44:05;;;;;;;13.75;8.15;;;;;;;5.28;93.34;101667.70;3006562;78;21037;-72
2022/01/25 09:48:08;;;;;;;12.23;6.70;;;;;;;5.22;92.73;101669.26;3006411;79;21014;-72
2022/01/25 09:52:10;;;;;;;12.98;6.97;;;;;;;5.13;92.91;101660.37;3006765;78;21013;-73
2022/01/25 09:56:12;;;;;;;9.53;6.40;;;;;;;5.17;93.00;101665.94;3006737;77;21010;-73
2022/01/25 10:00:19;;;;;;;11.88;8.75;;;;;;;5.25;93.06;101664.34;3006863;79;21080;-73
2022/01/25 10:04:39;;;;;;;12.47;8.65;;;;;;;5.14;92.17;101653.71;3006439;79;21037;-73
2022/01/25 10:08:40;;;;;;;15.10;10.58;;;;;;;5.26;92.48;101637.88;3006373;79;21028;-72
2022/01/25 10:12:41;;;;;;;15.08;9.03;;;;;;;5.35;91.93;101649.86;3006478;79;21018;-72
2022/01/25 10:16:43;;;;;;;13.00;9.18;;;;;;;5.42;91.65;101644.77;3006556;79;20998;-72
2022/01/25 10:20:51;;;;;;;12.20;7.20;;;;;;;5.61;93.35;101647.14;3006022;78;21404;-72
2022/01/25 10:24:53;;;;;;;10.20;7.12;;;;;;;5.64;90.62;101642.61;3006088;79;20994;-72
2022/01/25 10:28:55;;;;;;;9.30;6.95;;;;;;;5.51;88.85;101635.64;3007001;79;21053;-71
2022/01/25 10:33:01;;;;;;;10.43;7.58;;;;;;;5.46;89.37;101627.50;2980418;79;21002;-71
2022/01/25 10:37:11;;;;;;;11.40;7.20;;;;;;;5.55;90.23;101624.03;3006656;79;23370;-72
2022/01/25 10:41:22;;;;;;;10.60;7.15;;;;;;;5.72;89.48;101617.23;3007037;79;20980;-72
2022/01/25 10:45:24;;;;;;;14.23;9.80;;;;;;;5.88;92.77;101602.06;3008420;77;21085;-71
2022/01/25 10:49:26;;;;;;;13.32;9.45;;;;;;;5.92;89.30;101597.08;3010597;79;20970;-71
2022/01/25 10:53:28;;;;;;;16.50;9.53;;;;;;;5.85;89.88;101586.73;3010680;79;21053;-72
2022/01/25 10:57:30;;;;;;;16.45;9.70;;;;;;;5.85;88.17;101585.42;3010870;78;21475;-72
2022/01/25 11:01:37;;;;;;;11.73;8.63;;;;;;;5.93;89.66;101585.58;3010421;79;21014;-71
2022/01/25 11:05:45;;;;;;;17.07;9.83;;;;;;;5.96;88.10;101566.96;3009019;79;20978;-71
2022/01/25 11:09:47;;;;;;;15.15;9.35;;;;;;;5.63;88.20;101557.73;3010174;79;21021;-71
2022/01/25 11:13:50;;;;;;;8.53;6.05;;;;;;;5.68;88.99;101549.61;3010394;79;21018;-71
2022/01/25 11:17:52;;;;;;;10.63;6.85;;;;;;;5.68;87.22;101546.97;3011007;79;20986;-70
2022/01/25 11:21:55;;;;;;;13.35;7.78;;;;;;;5.67;87.74;101542.61;3010333;79;21076;-72
2022/01/25 11:26:00;;;;;;;10.68;8.10;;;;;;;5.67;88.18;101543.93;3010352;79;21017;-71
2022/01/25 11:30:12;;;;;;;8.45;6.12;;;;;;;5.69;87.58;101545.59;3010109;78;20979;-71
2022/01/25 11:34:15;;;;;;;16.45;8.48;;;;;;;5.51;87.82;101534.47;3009614;79;21040;-71
2022/01/25 11:38:28;;;;;;;12.00;8.98;;;;;;;5.49;88.76;101531.87;3010204;79;21006;-71
2022/01/25 11:42:36;;;;;;;8.23;5.53;;;;;;;5.47;88.96;101528.45;3002244;79;20994;-71
2022/01/25 11:46:34;;;;;;;14.63;10.38;;;;;;;5.53;89.80;101529.53;3067000;77;20991;-71
2022/01/25 11:50:43;;;;;;;11.08;7.50;;;;;;;5.79;87.97;101531.55;3063858;77;21062;-71
2022/01/25 11:54:45;;;;;;;22.87;14.78;;;;;;;5.90;89.18;101524.97;3063731;77;20979;-71
2022/01/25 11:58:57;;;;;;;12.50;7.80;;;;;;;5.94;86.96;101531.84;3064246;77;20951;-70
2022/01/25 12:03:01;;;;;;;17.48;9.73;;;;;;;6.04;88.12;101530.53;3064118;77;20951;-71
2022/01/25 12:07:18;;;;;;;15.85;8.65;;;;;;;6.23;87.73;101535.02;3063815;77;20963;-71
2022/01/25 12:11:35;;;;;;;14.20;8.58;;;;;;;6.24;85.66;101522.20;3031022;77;20997;-71
2022/01/25 12:15:35;;;;;;;15.20;8.43;;;;;;;6.21;84.95;101518.38;3063252;77;21018;-71
2022/01/25 12:19:59;;;;;;;13.18;7.90;;;;;;;6.22;84.91;101510.85;3063725;77;21472;-71
2022/01/25 12:24:23;;;;;;;11.18;7.22;;;;;;;6.22;86.58;101517.01;3063579;77;21006;-70
2022/01/25 12:28:29;;;;;;;12.37;6.78;;;;;;;6.27;85.39;101520.30;3063653;77;21006;-71
2022/01/25 12:32:36;;;;;;;14.20;8.90;;;;;;;6.39;84.95;101504.36;3063592;77;21468;-70
2022/01/25 12:36:40;;;;;;;24.50;17.05;;;;;;;6.44;82.64;101501.52;3063493;77;21061;-71
2022/01/25 12:40:52;;;;;;;9.10;6.45;;;;;;;6.64;81.57;101502.40;3063857;77;20995;-71
2022/01/25 12:44:54;;;;;;;12.25;6.45;;;;;;;6.82;83.64;101499.34;3058788;77;21009;-71
2022/01/25 12:49:10;;;;;;;9.98;5.45;;;;;;;6.84;82.04;101506.75;3035006;78;21013;-70
2022/01/25 12:53:13;;;;;;;12.93;7.70;;;;;;;6.81;82.77;101502.92;3034817;78;20974;-70
2022/01/25 12:57:16;;;;;;;11.22;9.00;;;;;;;6.69;81.61;101498.63;3035039;78;21561;-71
2022/01/25 13:01:21;;;;;;;25.27;16.35;;;;;;;6.71;81.96;101512.63;3034568;78;21018;-70
2022/01/25 13:05:25;;;;;;;9.45;7.47;;;;;;;6.56;80.87;101509.35;3034144;78;21040;-71
2022/01/25 13:09:37;;;;;;;10.13;8.40;;;;;;;6.52;81.69;101501.17;3034443;78;20989;-70
2022/01/25 13:13:44;;;;;;;11.03;7.47;;;;;;;6.58;81.96;101514.10;3031678;78;20990;-70
2022/01/25 13:17:39;;;;;;;5.37;4.35;;;;;;;6.36;80.91;101519.03;3032863;77;21017;-70
2022/01/25 13:21:59;;;;;;;38.65;26.77;;;;;;;6.30;81.43;101521.96;3034910;78;21028;-70
2022/01/25 13:26:13;;;;;;;21.55;11.63;;;;;;;6.25;81.30;101519.95;3034674;78;20954;-70
2022/01/25 13:34:33;;;;;;;11.65;7.03;;;;;;;6.23;83.05;101516.08;3034895;78;21033;-70
2022/01/25 13:38:38;;;;;;;8.65;5.42;;;;;;;6.04;83.98;101510.72;3035098;78;21001;-70
2022/01/25 13:46:44;;;;;;;11.97;7.03;;;;;;;5.95;85.03;101506.66;3022237;77;21014;-70
2022/01/25 13:50:46;;;;;;;9.75;4.80;;;;;;;5.82;84.22;101507.65;3063605;77;20983;-71
2022/01/25 13:54:48;;;;;;;12.03;7.90;;;;;;;5.79;85.45;101513.52;3063866;77;20986;-70
2022/01/25 13:58:52;;;;;;;11.35;8.15;;;;;;;5.81;85.98;101509.89;3063681;77;21038;-70
2022/01/25 14:02:57;;;;;;;12.25;7.90;;;;;;;5.70;86.79;101506.39;3063779;77;21586;-70
2022/01/25 14:07:02;;;;;;;16.48;11.63;;;;;;;5.66;85.89;101496.02;3063513;76;20991;-71
2022/01/25 14:11:26;;;;;;;13.65;10.18;;;;;;;5.54;85.75;101499.58;3063663;77;21025;-70
2022/01/25 14:24:07;;;;;;;134.95;101.50;;;;;;;5.59;86.02;101512.56;3065265;77;20979;-68
2022/01/25 14:28:18;;;;;;;21.48;12.88;;;;;;;5.65;86.34;101518.05;3065146;77;21084;-69
2022/01/25 14:32:35;;;;;;;23.85;12.58;;;;;;;5.70;85.93;101512.98;3063981;77;20978;-68
2022/01/25 14:36:39;;;;;;;47.85;22.20;;;;;;;5.69;85.63;101514.36;3034853;77;20979;-68
2022/01/25 14:40:43;;;;;;;24.10;12.28;;;;;;;5.66;85.47;101517.13;3063197;76;21015;-68
2022/01/25 14:44:47;;;;;;;29.10;16.45;;;;;;;5.67;86.27;101514.44;3058612;77;21022;-68
2022/01/25 14:49:11;;;;;;;45.45;20.72;;;;;;;5.78;86.26;101510.48;3061027;77;20971;-69
2022/01/25 14:53:13;;;;;;;60.17;30.85;;;;;;;5.73;86.44;101512.02;3060608;77;20999;-68
2022/01/25 14:57:19;;;;;;;56.00;29.25;;;;;;;5.71;85.84;101519.14;3061773;77;21554;-68
2022/01/25 15:01:21;;;;;;;72.05;38.75;;;;;;;5.68;86.11;101513.97;3061165;77;21006;-71
2022/01/25 15:05:23;;;;;;;20.12;14.70;;;;;;;5.68;85.71;101516.61;3061171;77;20967;-69
2022/01/25 15:09:24;;;;;;;16.40;11.80;;;;;;;5.74;85.80;101525.61;3062093;77;20954;-68
2022/01/25 15:13:28;;;;;;;14.65;7.33;;;;;;;5.67;86.02;101522.36;3061562;77;20990;-68
2022/01/25 15:17:30;;;;;;;17.82;10.78;;;;;;;5.71;86.34;101523.10;3061019;77;20981;-68
2022/01/25 15:21:31;;;;;;;17.15;11.20;;;;;;;5.72;86.32;101531.42;3061070;76;20998;-68
2022/01/25 15:25:35;;;;;;;14.58;8.93;;;;;;;5.73;86.44;101530.50;3061057;77;21042;-70
2022/01/25 15:29:36;;;;;;;16.93;9.70;;;;;;;5.60;87.29;101530.59;3061108;77;20983;-68
2022/01/25 15:33:41;;;;;;;13.90;9.78;;;;;;;5.61;87.77;101538.91;3060867;77;20963;-70
2022/01/25 15:37:46;;;;;;;13.10;9.03;;;;;;;5.50;88.30;101544.19;3060775;77;20979;-70
2022/01/25 15:41:48;;;;;;;11.08;8.18;;;;;;;5.46;88.74;101541.24;3060814;77;21010;-69
2022/01/25 15:46:03;;;;;;;10.78;8.25;;;;;;;5.46;88.72;101539.08;3062373;77;21000;-68
2022/01/25 15:50:00;;;;;;;12.88;7.72;;;;;;;5.39;88.53;101546.38;3072469;77;20960;-70
2022/01/25 15:54:02;;;;;;;14.40;8.60;;;;;;;5.46;89.08;101547.00;3072936;76;20991;-69
2022/01/25 15:58:05;;;;;;;12.03;8.85;;;;;;;5.37;89.62;101553.02;3073223;77;20968;-68
2022/01/25 16:02:13;;;;;;;13.20;8.48;;;;;;;5.32;90.18;101560.27;3074440;77;20984;-69
2022/01/25 16:06:14;;;;;;;13.65;7.95;;;;;;;5.31;90.03;101556.39;3074162;77;21098;-69
2022/01/25 16:10:17;;;;;;;17.23;11.22;;;;;;;5.24;90.31;101560.56;3073284;77;21066;-68
2022/01/25 16:14:19;;;;;;;13.62;8.50;;;;;;;5.26;90.26;101561.37;3073401;77;20941;-69
2022/01/25 16:18:21;;;;;;;15.28;11.38;;;;;;;5.23;90.21;101557.53;3073958;77;20971;-68
2022/01/25 16:22:22;;;;;;;15.32;11.43;;;;;;;5.25;90.02;101558.33;3073559;77;20963;-68
2022/01/25 16:26:24;;;;;;;16.75;11.40;;;;;;;5.19;90.02;101563.85;3073600;77;21015;-70
2022/01/25 16:30:26;;;;;;;14.68;10.58;;;;;;;5.21;90.09;101569.92;3073314;77;21003;-69
2022/01/25 16:34:27;;;;;;;13.83;9.63;;;;;;;;;;3073629;77;20960;-69
2022/01/25 16:38:29;;;;;;;15.70;11.05;;;;;;;5.11;90.14;101565.47;3073706;77;21408;-69
2022/01/25 16:42:32;;;;;;;18.67;10.53;;;;;;;5.12;90.46;101574.25;3073666;77;21003;-70
2022/01/25 16:46:34;;;;;;;13.08;10.30;;;;;;;5.08;90.93;101577.90;3069643;77;20951;-67
2022/01/25 16:50:39;;;;;;;24.80;11.55;;;;;;;5.04;91.26;101579.81;3061684;77;20998;-69
2022/01/25 16:54:39;;;;;;;16.23;10.10;;;;;;;5.00;91.70;101574.23;3060417;77;20975;-68
2022/01/25 16:58:41;;;;;;;21.90;12.93;;;;;;;4.91;91.92;101556.14;3060409;77;20998;-70
2022/01/25 17:02:44;;;;;;;23.05;14.93;;;;;;;4.98;91.72;101551.02;3060770;77;20955;-71
2022/01/25 17:06:45;;;;;;;20.72;12.18;;;;;;;4.95;91.99;101559.05;3060590;77;20986;-71
2022/01/25 17:10:49;;;;;;;21.77;11.28;;;;;;;4.90;92.08;101556.58;3060787;77;20951;-70
2022/01/25 17:14:50;;;;;;;31.93;13.40;;;;;;;4.92;92.19;101555.22;3060176;76;21480;-69
2022/01/25 17:18:52;;;;;;;22.73;12.90;;;;;;;4.94;92.05;101558.20;3060137;77;21010;-68
2022/01/25 17:22:55;;;;;;;24.07;13.20;;;;;;;4.86;92.23;101557.62;3032096;77;20939;-69
2022/01/25 17:26:57;;;;;;;17.57;10.93;;;;;;;4.90;92.15;101552.63;3060378;77;20954;-69
2022/01/25 17:30:59;;;;;;;18.15;10.55;;;;;;;4.88;92.40;101557.58;3059843;77;21026;-70
2022/01/25 17:35:01;;;;;;;19.87;14.30;;;;;;;4.88;92.84;101553.14;3060394;77;20995;-68
2022/01/25 17:39:04;;;;;;;21.68;14.53;;;;;;;4.93;92.28;101554.30;3060850;77;20947;-69
2022/01/25 17:43:06;;;;;;;20.12;13.20;;;;;;;4.94;92.46;101558.20;3060321;77;21003;-68
2022/01/25 17:47:11;;;;;;;17.00;11.57;;;;;;;4.90;92.84;101561.85;3049059;77;21079;-68
2022/01/25 17:51:13;;;;;;;14.03;10.55;;;;;;;4.84;93.23;101564.73;3031519;78;21095;-68
2022/01/25 17:55:15;;;;;;;18.55;11.45;;;;;;;4.83;93.73;101559.05;3032169;77;21059;-68
2022/01/25 17:59:17;;;;;;;17.05;10.63;;;;;;;4.76;94.32;101557.58;3031696;77;20985;-68
2022/01/25 18:03:21;;;;;;;18.98;13.32;;;;;;;4.96;93.61;101547.58;3032026;78;21005;-68
2022/01/25 18:07:23;;;;;;;19.98;14.30;;;;;;;4.93;93.44;101553.86;3032286;78;20985;-69
2022/01/25 18:11:24;;;;;;;20.68;13.08;;;;;;;4.98;93.21;101553.21;3032172;78;20982;-68
2022/01/25 18:15:26;;;;;;;15.50;11.45;;;;;;;5.08;92.88;101552.84;3032129;78;21056;-67
2022/01/25 18:19:29;;;;;;;19.45;11.63;;;;;;;5.17;92.40;101551.63;3032336;78;21025;-67
2022/01/25 18:23:41;;;;;;;17.32;12.37;;;;;;;5.18;92.24;101559.50;3032078;78;20986;-67
2022/01/25 18:27:35;;;;;;;19.57;14.18;;;;;;;5.23;91.88;101556.69;3029896;77;21063;-67
2022/01/25 18:31:39;;;;;;;17.77;12.95;;;;;;;5.26;91.76;101552.61;3031467;78;21000;-67
2022/01/25 18:35:47;;;;;;;15.23;10.98;;;;;;;5.17;91.74;101547.67;2966755;79;21026;-68
2022/01/25 18:39:50;;;;;;;21.50;13.38;;;;;;;5.09;92.07;101547.52;3003243;79;21025;-67
2022/01/25 18:43:51;;;;;;;18.73;9.90;;;;;;;5.06;92.45;101552.05;3003201;79;20997;-67
2022/01/25 18:47:54;;;;;;;14.65;12.37;;;;;;;4.99;92.91;101550.97;3001189;79;21077;-67
2022/01/25 18:51:56;;;;;;;15.72;12.03;;;;;;;4.87;93.48;101564.61;3021499;78;21078;-67
2022/01/25 18:55:59;;;;;;;19.82;13.15;;;;;;;4.95;93.61;101557.29;3021444;78;21072;-67
2022/01/25 19:00:01;;;;;;;15.30;11.20;;;;;;;4.97;93.66;101562.05;3021851;78;20962;-68
2022/01/25 19:04:04;;;;;;;16.55;11.08;;;;;;;4.93;93.91;101568.80;3022171;78;20997;-68
2022/01/25 19:08:06;;;;;;;20.15;13.03;;;;;;;5.00;93.66;101561.05;3022531;78;21555;-67
2022/01/25 19:12:09;;;;;;;19.30;11.50;;;;;;;4.94;93.66;101558.66;3022607;78;21009;-67
2022/01/25 19:16:11;;;;;;;13.40;9.88;;;;;;;4.89;93.79;101564.09;3020528;78;21369;-68
2022/01/25 19:20:13;;;;;;;13.05;10.08;;;;;;;5.01;93.93;101566.72;3021696;78;21283;-67
2022/01/25 19:24:16;;;;;;;19.07;13.15;;;;;;;5.09;93.67;101554.56;3021109;78;21048;-68
2022/01/25 19:28:18;;;;;;;15.95;10.43;;;;;;;5.13;93.66;101547.80;3021254;78;21516;-67
2022/01/25 19:32:20;;;;;;;13.08;8.68;;;;;;;5.16;93.33;101548.15;3020655;78;20969;-68
2022/01/25 19:36:22;;;;;;;15.88;11.73;;;;;;;5.21;93.17;101546.19;3021038;78;21022;-68
2022/01/25 19:40:24;;;;;;;12.53;9.63;;;;;;;5.21;93.14;101546.19;3021834;78;21024;-68
2022/01/25 19:44:26;;;;;;;18.10;9.13;;;;;;;5.23;92.93;101540.38;3021153;78;21052;-68
2022/01/25 19:48:29;;;;;;;12.43;9.00;;;;;;;5.23;92.81;101544.34;3012140;78;21010;-67
2022/01/25 19:52:38;;;;;;;14.65;7.92;;;;;;;5.23;92.60;101544.34;3006510;79;21039;-68
2022/01/25 19:56:36;;;;;;;14.53;8.28;;;;;;;5.16;92.71;101544.19;3005228;79;20959;-67
2022/01/25 20:00:44;;;;;;;13.65;8.55;;;;;;;5.15;92.86;101529.28;3006277;79;21145;-68
2022/01/25 20:04:46;;;;;;;15.80;9.83;;;;;;;5.06;93.12;101545.45;3006681;79;21025;-68
2022/01/25 20:08:48;;;;;;;13.08;9.15;;;;;;;5.09;93.24;101550.61;3006904;79;21045;-68
2022/01/25 20:12:50;;;;;;;9.73;7.37;;;;;;;5.14;93.17;101544.72;3006541;79;20993;-67
2022/01/25 20:16:51;;;;;;;14.13;11.12;;;;;;;5.03;92.96;101541.17;3006287;79;20990;-68
2022/01/25 20:21:03;;;;;;;12.73;9.93;;;;;;;5.11;93.01;101536.89;3007015;79;21006;-67
2022/01/25 20:25:13;;;;;;;10.67;7.97;;;;;;;5.14;92.85;101543.40;3005090;79;20986;-67
2022/01/25 20:29:13;;;;;;;12.35;8.38;;;;;;;5.18;92.86;101543.67;3002626;79;20974;-68
2022/01/25 20:33:13;;;;;;;13.80;9.70;;;;;;;5.20;92.47;101531.72;3005412;78;21377;-68
2022/01/25 20:37:14;;;;;;;12.88;9.33;;;;;;;5.20;92.40;101535.23;3015533;77;21092;-70
2022/01/25 20:41:17;;;;;;;9.90;6.55;;;;;;;5.21;92.17;101531.67;3087636;77;20965;-69
2022/01/25 20:45:19;;;;;;;13.35;8.05;;;;;;;5.20;92.22;101533.91;3090774;77;20995;-70